Time;durP1;ratioP1;P1;durP2;ratioP2;P2;SDS_P1;SDS_P2;PMS_P1;PMS_P2;Temp;Humidity;BMP_temperature;BMP_pressure;BME280_temperature;BME280_humidity;BME280_pressure;Samples;Min_cycle;Max_cycle;Signal;HPM_P1;HPM_P2
2020/12/05 00:02:41;;;;;;;2.13;1.92;;;9.90;79.50;;;;;;5118256;28;20112;-47
2020/12/05 00:05:06;;;;;;;2.42;2.03;;;9.90;79.50;;;;;;5132976;27;20047;-43
2020/12/05 00:07:32;;;;;;;2.10;1.90;;;9.90;79.50;;;;;;5133254;28;20050;-49
2020/12/05 00:09:58;;;;;;;2.60;2.25;;;9.90;79.50;;;;;;5133509;28;20084;-46
2020/12/05 00:12:44;;;;;;;1.63;1.52;;;9.90;79.50;;;;;;5118237;28;20047;-42
2020/12/05 00:15:09;;;;;;;2.35;1.98;;;9.90;79.50;;;;;;5132593;28;20388;-45
2020/12/05 00:17:55;;;;;;;1.73;1.63;;;9.90;79.50;;;;;;5117392;28;20529;-43
2020/12/05 00:20:21;;;;;;;2.25;2.05;;;9.90;79.50;;;;;;5133003;28;20043;-41
2020/12/05 00:22:46;;;;;;;1.83;1.70;;;9.90;79.50;;;;;;5133143;28;20039;-40
2020/12/05 00:25:12;;;;;;;2.00;1.80;;;9.90;79.50;;;;;;5133361;28;20370;-40
2020/12/05 00:27:57;;;;;;;2.08;1.88;;;9.90;79.50;;;;;;5109274;28;20055;-39
2020/12/05 00:30:43;;;;;;;2.60;1.83;;;9.90;79.50;;;;;;5117863;28;20055;-41
2020/12/05 00:33:09;;;;;;;1.85;1.73;;;9.80;79.40;;;;;;5132601;28;20410;-42
2020/12/05 00:35:55;;;;;;;2.10;1.75;;;9.80;79.40;;;;;;5117885;28;20047;-42
2020/12/05 00:38:20;;;;;;;2.45;2.10;;;9.90;79.50;;;;;;5133048;28;20043;-41
2020/12/05 00:40:46;;;;;;;2.50;1.90;;;9.80;79.40;;;;;;5132570;28;20049;-41
2020/12/05 00:43:12;;;;;;;2.42;2.00;;;9.90;79.50;;;;;;5133164;28;20530;-41
2020/12/05 00:45:58;;;;;;;3.17;2.22;;;9.90;79.50;;;;;;5109119;28;20109;-40
2020/12/05 00:48:24;;;;;;;3.22;2.40;;;9.90;79.50;;;;;;5132435;28;20043;-42
2020/12/05 00:51:13;;;;;;;2.83;2.25;;;9.90;79.50;;;;;;5118354;28;20122;-42
2020/12/05 00:53:58;;;;;;;2.33;2.10;;;9.80;79.40;;;;;;5117855;28;20549;-41
2020/12/05 00:56:24;;;;;;;2.38;1.92;;;9.80;79.40;;;;;;5133426;28;20047;-40
2020/12/05 00:59:10;;;;;;;2.88;2.20;;;9.80;79.40;;;;;;5117396;28;20039;-42
2020/12/05 01:01:35;;;;;;;2.25;2.00;;;9.90;79.50;;;;;;5132894;28;20043;-41
2020/12/05 01:04:02;;;;;;;2.40;2.20;;;9.80;79.40;;;;;;5132103;28;20050;-41
2020/12/05 01:06:27;;;;;;;2.65;2.20;;;9.90;79.50;;;;;;5133242;27;20031;-44
2020/12/05 01:09:13;;;;;;;2.53;2.20;;;9.90;79.50;;;;;;5120835;27;20498;-41
2020/12/05 01:11:39;;;;;;;2.55;2.00;;;9.90;79.50;;;;;;5136505;27;20491;-42
2020/12/05 01:14:05;;;;;;;3.05;2.55;;;9.80;79.40;;;;;;5135553;27;20050;-42
2020/12/05 01:16:31;;;;;;;2.70;2.20;;;9.80;79.40;;;;;;5136319;27;20528;-42
2020/12/05 01:19:17;;;;;;;2.88;2.15;;;9.90;79.50;;;;;;5120494;27;20039;-42
2020/12/05 01:22:02;;;;;;;2.88;2.60;;;9.90;79.50;;;;;;5130629;27;20086;-39
2020/12/05 01:24:28;;;;;;;2.50;2.30;;;9.80;79.40;;;;;;5136027;27;20102;-42
2020/12/05 01:26:53;;;;;;;4.13;2.80;;;9.90;79.50;;;;;;5135946;27;20311;-41
2020/12/05 01:29:19;;;;;;;3.22;2.08;;;9.90;79.50;;;;;;5136271;27;20043;-42
2020/12/05 01:32:05;;;;;;;2.33;2.13;;;9.80;79.40;;;;;;5119848;27;20054;-45
2020/12/05 01:34:51;;;;;;;2.90;2.30;;;9.80;80.10;;;;;;5119305;27;20100;-47
2020/12/05 01:37:17;;;;;;;2.30;2.10;;;9.80;79.40;;;;;;5135946;27;20047;-45
2020/12/05 01:39:42;;;;;;;2.58;2.22;;;9.90;79.50;;;;;;5136224;27;20070;-44
2020/12/05 01:42:28;;;;;;;3.38;2.60;;;9.90;79.50;;;;;;5120299;27;20043;-46
2020/12/05 01:44:54;;;;;;;3.58;2.70;;;9.80;79.40;;;;;;5135999;27;20112;-43
2020/12/05 01:47:23;;;;;;;3.05;2.55;;;9.80;79.40;;;;;;5135781;27;20479;-45
2020/12/05 01:50:09;;;;;;;2.80;2.08;;;9.90;79.50;;;;;;5147324;27;20047;-45
2020/12/05 01:52:55;;;;;;;3.72;2.50;;;9.90;79.50;;;;;;5147162;27;20055;-40
2020/12/05 01:55:20;;;;;;;2.97;2.40;;;9.80;79.40;;;;;;5135585;27;20048;-39
2020/12/05 01:57:46;;;;;;;3.03;2.72;;;9.90;79.50;;;;;;5136095;27;20039;-44
2020/12/05 02:00:12;;;;;;;3.22;2.47;;;9.80;79.40;;;;;;5135802;27;20479;-46
2020/12/05 02:02:37;;;;;;;3.53;2.83;;;9.80;79.40;;;;;;5135602;27;20384;-42
2020/12/05 02:05:17;;;;;;;3.38;2.42;;;9.90;79.50;;;;;;5135119;27;20454;-42
2020/12/05 02:08:08;;;;;;;3.22;2.40;;;9.90;79.50;;;;;;5134862;27;20049;-43
2020/12/05 02:10:39;;;;;;;3.47;2.95;;;9.90;79.50;;;;;;5135436;27;20483;-44
2020/12/05 02:13:34;;;;;;;3.10;2.50;;;9.80;79.40;;;;;;5135472;27;20039;-44
2020/12/05 02:16:22;;;;;;;3.03;2.65;;;9.80;79.40;;;;;;5040899;28;20504;-43
2020/12/05 02:18:50;;;;;;;3.60;2.60;;;9.80;79.40;;;;;;5031014;28;20049;-44
2020/12/05 02:21:18;;;;;;;3.33;2.40;;;9.80;79.40;;;;;;5031790;28;20060;-45
2020/12/05 02:23:46;;;;;;;3.80;2.83;;;9.80;79.40;;;;;;5031053;28;20049;-45
2020/12/05 02:26:12;;;;;;;3.78;2.70;;;9.80;79.40;;;;;;5031738;28;20046;-41
2020/12/05 02:28:38;;;;;;;3.58;2.92;;;9.80;79.40;;;;;;5031740;28;20050;-41
2020/12/05 02:31:04;;;;;;;3.42;2.92;;;9.80;79.40;;;;;;5032034;28;20041;-40
2020/12/05 02:33:49;;;;;;;3.35;2.80;;;9.80;79.40;;;;;;5018273;28;20164;-43
2020/12/05 02:36:15;;;;;;;3.00;2.58;;;9.80;79.40;;;;;;5031661;28;20587;-41
2020/12/05 02:39:08;;;;;;;3.97;3.10;;;9.80;79.40;;;;;;5017231;28;20569;-43
2020/12/05 02:41:39;;;;;;;4.35;3.15;;;9.80;79.50;;;;;;5031684;28;20052;-42
2020/12/05 02:44:06;;;;;;;2.90;2.40;;;9.80;79.40;;;;;;5031384;28;20057;-42
2020/12/05 02:46:32;;;;;;;3.20;2.53;;;9.80;79.40;;;;;;5031249;28;20137;-42
2020/12/05 02:48:57;;;;;;;2.75;2.53;;;9.80;79.50;;;;;;5031413;28;20049;-42
2020/12/05 02:51:23;;;;;;;3.28;2.60;;;9.80;79.40;;;;;;5031300;28;20049;-42
2020/12/05 02:53:49;;;;;;;3.28;2.60;;;9.80;79.40;;;;;;5115393;27;20406;-43
2020/12/05 02:56:18;;;;;;;3.67;2.88;;;9.80;79.40;;;;;;5134098;27;20043;-43
2020/12/05 02:59:04;;;;;;;3.67;2.88;;;9.80;79.40;;;;;;5119043;27;20430;-43
2020/12/05 03:01:50;;;;;;;3.55;2.90;;;9.80;79.40;;;;;;5119038;27;20039;-44
2020/12/05 03:04:16;;;;;;;3.80;2.50;;;9.80;79.40;;;;;;5134384;27;20046;-43
2020/12/05 03:06:41;;;;;;;3.47;3.17;;;9.80;79.40;;;;;;5134166;27;20471;-42
2020/12/05 03:09:08;;;;;;;3.10;2.80;;;9.80;79.40;;;;;;5134121;27;20039;-44
2020/12/05 03:11:54;;;;;;;3.25;2.70;;;9.80;79.40;;;;;;5107563;27;20050;-44
2020/12/05 03:14:39;;;;;;;3.55;2.92;;;9.80;79.40;;;;;;5119146;27;20057;-40
2020/12/05 03:17:25;;;;;;;3.20;2.90;;;9.80;79.40;;;;;;5119378;27;20043;-41
2020/12/05 03:20:11;;;;;;;3.65;2.83;;;9.80;79.40;;;;;;5117977;27;20035;-43
2020/12/05 03:22:57;;;;;;;3.10;2.63;;;9.80;79.40;;;;;;5118812;27;20039;-42
2020/12/05 03:25:22;;;;;;;3.53;2.92;;;9.80;79.40;;;;;;5133858;27;20169;-42
2020/12/05 03:27:48;;;;;;;4.20;2.90;;;9.80;79.40;;;;;;5133398;27;20051;-42
2020/12/05 03:30:14;;;;;;;4.05;3.10;;;9.80;79.40;;;;;;5133401;27;20043;-43
2020/12/05 03:32:41;;;;;;;3.35;3.00;;;9.80;79.40;;;;;;5133673;27;20043;-43
2020/12/05 03:35:07;;;;;;;3.88;3.00;;;9.80;79.40;;;;;;5133726;27;20491;-41
2020/12/05 03:37:33;;;;;;;3.17;2.88;;;9.80;79.40;;;;;;5133553;27;20042;-42
2020/12/05 03:39:59;;;;;;;3.47;3.05;;;9.80;79.40;;;;;;5134006;27;20479;-42
2020/12/05 03:42:25;;;;;;;3.83;3.08;;;9.80;79.40;;;;;;5133565;27;20050;-44
2020/12/05 03:45:11;;;;;;;4.28;3.45;;;9.80;79.50;;;;;;5117931;27;20043;-41
2020/12/05 03:47:56;;;;;;;3.25;2.95;;;9.80;79.40;;;;;;5118255;27;20090;-41
2020/12/05 03:50:22;;;;;;;4.10;3.20;;;9.80;79.40;;;;;;5133925;27;20428;-40
2020/12/05 03:52:48;;;;;;;3.58;3.13;;;9.80;79.50;;;;;;5146891;27;20043;-41
2020/12/05 03:55:13;;;;;;;3.92;3.20;;;9.80;79.40;;;;;;5133445;27;20122;-49
2020/12/05 03:57:39;;;;;;;3.78;3.00;;;9.80;79.50;;;;;;5133531;27;20086;-48
2020/12/05 04:00:05;;;;;;;3.28;2.97;;;9.80;79.50;;;;;;5132826;27;20043;-42
2020/12/05 04:02:51;;;;;;;;;;;9.80;79.50;;;;;;5118639;27;20076;-41
2020/12/05 04:05:16;;;;;;;;;;;9.80;79.40;;;;;;5123251;27;19920;-42
2020/12/05 04:07:42;;;;;;;3.40;3.10;;;9.80;79.40;;;;;;5133192;27;19920;-42
2020/12/05 04:10:08;;;;;;;3.45;3.05;;;9.80;79.40;;;;;;5133798;28;20079;-40
2020/12/05 04:12:53;;;;;;;3.67;2.70;;;9.70;79.40;;;;;;5118305;28;20058;-43
2020/12/05 04:15:19;;;;;;;3.95;3.10;;;9.70;79.40;;;;;;5132731;28;20046;-41
2020/12/05 04:17:44;;;;;;;3.85;2.78;;;9.80;79.40;;;;;;5137493;27;20073;-40
2020/12/05 04:20:10;;;;;;;3.45;3.03;;;9.80;79.50;;;;;;5133289;28;20046;-41
2020/12/05 04:22:36;;;;;;;2.97;2.60;;;9.80;79.50;;;;;;5133144;28;20043;-41
2020/12/05 04:25:02;;;;;;;4.45;3.20;;;9.70;79.40;;;;;;5133411;28;20080;-40
2020/12/05 04:27:28;;;;;;;4.07;3.40;;;9.80;79.40;;;;;;5132376;28;20055;-42
2020/12/05 04:30:14;;;;;;;4.43;3.38;;;9.80;79.50;;;;;;5117707;28;20043;-42
2020/12/05 04:32:39;;;;;;;3.88;3.30;;;9.80;79.50;;;;;;5132686;28;20043;-40
2020/12/05 04:35:05;;;;;;;4.45;3.45;;;9.80;79.50;;;;;;5133153;28;20039;-40
2020/12/05 04:37:31;;;;;;;3.78;3.38;;;9.80;79.50;;;;;;5133083;28;20035;-41
2020/12/05 04:40:16;;;;;;;4.15;3.45;;;9.80;79.50;;;;;;5117508;27;20047;-41
2020/12/05 04:42:46;;;;;;;4.70;3.17;;;9.80;79.40;;;;;;5135910;27;20487;-41
2020/12/05 04:45:33;;;;;;;4.57;3.10;;;9.80;79.50;;;;;;5121656;27;20051;-41
2020/12/05 04:48:02;;;;;;;4.78;3.42;;;9.80;79.50;;;;;;5136361;27;20047;-41
2020/12/05 04:50:30;;;;;;;3.50;2.97;;;9.80;79.50;;;;;;5136732;27;20402;-40
2020/12/05 04:53:21;;;;;;;4.43;3.40;;;9.80;79.50;;;;;;5111158;27;20047;-41
2020/12/05 04:56:07;;;;;;;4.72;3.67;;;9.80;79.50;;;;;;5121418;27;20047;-43
2020/12/05 04:58:34;;;;;;;3.97;3.25;;;9.80;79.40;;;;;;5136682;27;20107;-42
2020/12/05 05:01:00;;;;;;;4.13;3.08;;;9.80;79.50;;;;;;5136910;27;20043;-40
2020/12/05 05:03:27;;;;;;;3.88;3.30;;;9.80;79.50;;;;;;5136067;27;20047;-41
2020/12/05 05:05:57;;;;;;;3.97;3.33;;;9.80;79.50;;;;;;5136078;27;20150;-38
2020/12/05 05:08:24;;;;;;;4.13;3.55;;;9.80;79.50;;;;;;5136742;27;20494;-42
2020/12/05 05:11:09;;;;;;;4.38;3.35;;;9.80;79.40;;;;;;5136605;27;20035;-42
2020/12/05 05:13:58;;;;;;;5.55;3.58;;;9.80;79.40;;;;;;5136391;27;20092;-42
2020/12/05 05:16:44;;;;;;;4.60;3.75;;;9.70;79.40;;;;;;5120942;27;20047;-43
2020/12/05 05:19:23;;;;;;;4.97;3.70;;;9.80;79.40;;;;;;5135936;27;20050;-41
2020/12/05 05:21:50;;;;;;;6.07;3.65;;;9.70;79.40;;;;;;5136311;27;20043;-42
2020/12/05 05:24:18;;;;;;;4.00;3.47;;;9.80;79.40;;;;;;5136097;27;20494;-40
2020/12/05 05:26:56;;;;;;;4.72;3.60;;;9.80;79.40;;;;;;5135764;27;20089;-43
2020/12/05 05:29:28;;;;;;;5.32;4.00;;;9.80;79.40;;;;;;5126243;27;20039;-44
2020/12/05 05:32:28;;;;;;;4.53;3.65;;;9.80;79.40;;;;;;5120413;27;20043;-41
2020/12/05 05:35:13;;;;;;;4.72;3.38;;;9.80;79.40;;;;;;5135587;27;20043;-42
2020/12/05 05:37:43;;;;;;;4.10;3.58;;;9.80;79.40;;;;;;5135743;27;20174;-41
2020/12/05 05:40:29;;;;;;;5.45;3.88;;;9.80;79.40;;;;;;5120660;27;20138;-41
2020/12/05 05:42:54;;;;;;;4.50;3.42;;;9.80;79.50;;;;;;5136242;27;20100;-41
2020/12/05 05:45:26;;;;;;;5.38;3.83;;;9.80;79.40;;;;;;5135657;27;20476;-41
2020/12/05 05:48:03;;;;;;;6.13;3.95;;;9.70;79.40;;;;;;5135833;27;20043;-40
2020/12/05 05:50:48;;;;;;;4.95;3.45;;;9.70;79.40;;;;;;5113454;27;20384;-47
2020/12/05 05:53:22;;;;;;;4.55;3.67;;;9.80;79.40;;;;;;5135297;27;20050;-44
2020/12/05 05:55:49;;;;;;;4.72;3.83;;;9.80;79.50;;;;;;5135452;27;20482;-46
2020/12/05 05:58:20;;;;;;;6.22;3.83;;;9.80;79.50;;;;;;5135730;27;20178;-45
2020/12/05 06:01:06;;;;;;;5.43;3.67;;;9.80;79.40;;;;;;5112437;27;20444;-46
2020/12/05 06:03:42;;;;;;;6.40;4.05;;;9.70;79.40;;;;;;5135309;27;20039;-44
2020/12/05 06:06:32;;;;;;;5.63;3.70;;;9.80;79.50;;;;;;5119818;27;20043;-42
2020/12/05 06:09:01;;;;;;;4.30;3.63;;;9.70;79.40;;;;;;5134946;27;20130;-47
2020/12/05 06:11:29;;;;;;;5.35;3.92;;;9.70;79.40;;;;;;5135665;27;20043;-40
2020/12/05 06:13:55;;;;;;;5.40;4.07;;;9.80;79.40;;;;;;5135269;27;20043;-43
2020/12/05 06:16:22;;;;;;;4.60;3.63;;;9.70;79.40;;;;;;5135079;27;20410;-42
2020/12/05 06:18:48;;;;;;;5.57;3.83;;;9.70;79.40;;;;;;5124759;27;20047;-42
2020/12/05 06:21:13;;;;;;;5.85;3.80;;;9.70;79.40;;;;;;5134783;27;20050;-43
2020/12/05 06:24:05;;;;;;;4.93;3.83;;;9.80;79.50;;;;;;5119352;27;20049;-43
2020/12/05 06:26:34;;;;;;;5.38;4.05;;;9.80;79.50;;;;;;5135023;27;20055;-40
2020/12/05 06:29:01;;;;;;;6.45;3.45;;;9.70;79.40;;;;;;5116566;27;20062;-41
2020/12/05 06:31:48;;;;;;;5.10;4.07;;;9.70;79.40;;;;;;5134874;27;20043;-40
2020/12/05 06:34:34;;;;;;;6.20;4.22;;;9.80;80.10;;;;;;5134913;27;20047;-42
2020/12/05 06:37:38;;;;;;;5.75;4.28;;;9.80;79.50;;;;;;5113429;27;20093;-42
2020/12/05 06:40:05;;;;;;;6.57;4.47;;;9.70;79.40;;;;;;5126250;27;20111;-43
2020/12/05 06:42:44;;;;;;;7.10;4.43;;;9.70;79.40;;;;;;5134755;27;20080;-39
2020/12/05 06:45:30;;;;;;;5.90;3.72;;;9.70;79.40;;;;;;5145189;27;20055;-42
2020/12/05 06:48:08;;;;;;;6.20;4.38;;;9.70;79.40;;;;;;5134525;27;20047;-43
2020/12/05 06:50:39;;;;;;;5.68;4.10;;;9.70;79.40;;;;;;5134410;27;20479;-40
2020/12/05 06:53:20;;;;;;;7.22;4.18;;;9.70;79.40;;;;;;5134649;27;20043;-43
2020/12/05 06:55:55;;;;;;;6.45;4.60;;;9.80;79.50;;;;;;5133959;27;20058;-44
2020/12/05 06:58:29;;;;;;;6.13;4.10;;;9.70;79.40;;;;;;5134678;27;20058;-44
2020/12/05 07:00:56;;;;;;;6.35;4.53;;;9.70;79.40;;;;;;5124430;27;20127;-42
2020/12/05 07:03:28;;;;;;;5.63;4.03;;;9.70;79.40;;;;;;5134186;27;20392;-42
2020/12/05 07:05:54;;;;;;;5.28;3.92;;;9.70;79.40;;;;;;5133225;27;20050;-43
2020/12/05 07:08:41;;;;;;;7.10;4.10;;;9.70;79.40;;;;;;5111257;27;20054;-42
2020/12/05 07:11:27;;;;;;;5.82;3.90;;;9.70;79.40;;;;;;5118881;27;20380;-43
2020/12/05 07:13:52;;;;;;;6.45;4.22;;;9.70;79.40;;;;;;5133900;27;20043;-43
2020/12/05 07:16:26;;;;;;;6.65;4.22;;;9.70;79.50;;;;;;5134023;27;20043;-41
2020/12/05 07:19:12;;;;;;;6.65;4.40;;;9.70;79.40;;;;;;5111350;27;20047;-41
2020/12/05 07:21:39;;;;;;;5.47;3.97;;;9.70;79.40;;;;;;5133944;27;20069;-43
2020/12/05 07:24:05;;;;;;;5.72;4.22;;;9.70;79.50;;;;;;5133768;27;20049;-43
2020/12/05 07:26:33;;;;;;;5.90;3.85;;;9.70;79.40;;;;;;5133839;27;20055;-43
2020/12/05 07:29:22;;;;;;;6.20;4.38;;;9.70;79.40;;;;;;5117984;27;20104;-42
2020/12/05 07:31:49;;;;;;;6.15;4.35;;;9.70;79.40;;;;;;5133607;27;20042;-41
2020/12/05 07:34:19;;;;;;;6.10;4.47;;;9.70;79.50;;;;;;5133650;27;20522;-43
2020/12/05 07:37:04;;;;;;;6.53;4.35;;;9.70;79.40;;;;;;5128254;27;20134;-40
2020/12/05 07:39:43;;;;;;;5.30;3.95;;;9.70;79.40;;;;;;5132755;27;20134;-41
2020/12/05 07:42:09;;;;;;;6.38;3.92;;;9.70;79.40;;;;;;5133616;27;20091;-39
2020/12/05 07:44:35;;;;;;;5.95;4.60;;;9.70;79.40;;;;;;5133258;27;20458;-42
2020/12/05 07:47:21;;;;;;;6.13;4.25;;;9.70;79.40;;;;;;5145055;27;20082;-40
2020/12/05 07:50:09;;;;;;;7.20;4.85;;;9.70;79.40;;;;;;5117682;27;20103;-41
2020/12/05 07:52:55;;;;;;;5.43;4.10;;;9.70;79.50;;;;;;5117719;27;20066;-43
2020/12/05 07:55:20;;;;;;;6.18;3.90;;;9.70;79.50;;;;;;5133001;27;20047;-43
2020/12/05 07:57:52;;;;;;;4.63;3.40;;;9.70;79.50;;;;;;5132790;27;20043;-40
2020/12/05 08:00:20;;;;;;;6.68;4.55;;;9.70;79.50;;;;;;5132188;27;20039;-46
2020/12/05 08:03:40;;;;;;;5.13;4.00;;;9.70;79.50;;;;;;5132631;27;20071;-43
2020/12/05 08:06:20;;;;;;;5.45;4.28;;;9.70;79.50;;;;;;5044666;28;20060;-44
2020/12/05 08:08:52;;;;;;;7.13;4.35;;;9.70;79.50;;;;;;5050074;28;20136;-44
2020/12/05 08:11:18;;;;;;;6.97;4.55;;;9.70;79.50;;;;;;5049642;28;20076;-46
2020/12/05 08:14:04;;;;;;;;;;;9.70;79.50;;;;;;5028083;28;20490;-48
2020/12/05 08:16:30;;;;;;;5.57;4.38;;;9.70;79.40;;;;;;5046701;28;20015;-44
2020/12/05 08:19:16;;;;;;;6.05;4.13;;;9.70;79.40;;;;;;5034673;28;20052;-43
2020/12/05 08:21:42;;;;;;;5.00;3.95;;;9.70;79.50;;;;;;5047925;28;20057;-44
2020/12/05 08:24:27;;;;;;;;;;;9.70;79.40;;;;;;5038394;28;20048;-47
2020/12/05 08:26:53;;;;;;;;;;;9.70;79.40;;;;;;5052167;28;20404;-46
2020/12/05 08:29:22;;;;;;;6.60;4.43;;;9.70;79.50;;;;;;5052554;28;19932;-45
2020/12/05 08:31:48;;;;;;;6.68;4.40;;;9.70;79.50;;;;;;5049278;28;20528;-42
2020/12/05 08:34:28;;;;;;;6.13;3.95;;;9.70;80.10;;;;;;5052651;28;20040;-43
2020/12/05 08:36:54;;;;;;;7.95;5.13;;;9.60;79.40;;;;;;5052204;28;20076;-42
2020/12/05 08:39:21;;;;;;;6.38;4.50;;;9.70;79.50;;;;;;5069075;27;20047;-45
2020/12/05 08:41:49;;;;;;;6.85;4.75;;;9.70;79.40;;;;;;5134390;27;20035;-43
2020/12/05 08:44:17;;;;;;;7.30;4.80;;;9.70;79.50;;;;;;5137129;27;20046;-44
2020/12/05 08:46:43;;;;;;;5.63;4.28;;;9.70;79.40;;;;;;5136744;27;20476;-43
2020/12/05 08:49:38;;;;;;;5.93;4.35;;;9.70;80.10;;;;;;5107316;27;20493;-48
2020/12/05 08:52:06;;;;;;;4.88;4.10;;;9.70;79.50;;;;;;5136587;27;20050;-47
2020/12/05 08:54:53;;;;;;;6.72;4.60;;;9.70;79.50;;;;;;5119497;27;20046;-47
2020/12/05 08:57:22;;;;;;;18.45;8.00;;;9.70;79.40;;;;;;5136516;27;20511;-43
2020/12/05 08:59:58;;;;;;;12.00;6.85;;;9.60;79.10;;;;;;5136848;27;20126;-40
2020/12/05 09:02:35;;;;;;;10.88;6.80;;;9.60;79.30;;;;;;5126314;27;20116;-44
2020/12/05 09:05:01;;;;;;;11.88;7.22;;;9.60;79.30;;;;;;5136160;27;20039;-41
2020/12/05 09:07:28;;;;;;;9.25;6.63;;;9.60;79.30;;;;;;5136314;27;20066;-45
2020/12/05 09:09:54;;;;;;;11.73;7.15;;;9.60;79.30;;;;;;5136743;27;20049;-45
2020/12/05 09:12:40;;;;;;;11.63;7.47;;;9.60;79.30;;;;;;5121460;27;20047;-45
2020/12/05 09:15:07;;;;;;;8.88;6.57;;;9.60;79.30;;;;;;5136350;27;20061;-44
2020/12/05 09:17:57;;;;;;;9.18;6.57;;;9.60;79.40;;;;;;5121205;27;20051;-45
2020/12/05 09:20:42;;;;;;;9.10;6.45;;;9.60;79.40;;;;;;5130339;27;20430;-40
2020/12/05 09:23:29;;;;;;;8.20;6.80;;;9.60;79.30;;;;;;5121335;27;20047;-46
2020/12/05 09:26:04;;;;;;;13.48;7.45;;;9.60;79.40;;;;;;5136100;27;20392;-45
2020/12/05 09:28:31;;;;;;;12.88;8.70;;;9.60;79.30;;;;;;5135534;27;20058;-46
2020/12/05 09:30:57;;;;;;;11.45;8.10;;;9.60;79.10;;;;;;5136717;27;20423;-40
2020/12/05 09:33:23;;;;;;;10.70;7.95;;;9.50;79.20;;;;;;5136925;27;20047;-43
2020/12/05 09:35:49;;;;;;;11.70;8.40;;;9.50;79.20;;;;;;5136010;27;20483;-43
2020/12/05 09:38:15;;;;;;;11.73;8.38;;;9.50;79.30;;;;;;5136171;27;20191;-42
2020/12/05 09:41:01;;;;;;;10.73;8.05;;;9.50;79.30;;;;;;5118929;27;20047;-47
2020/12/05 09:43:27;;;;;;;12.15;8.48;;;9.50;79.30;;;;;;5136276;27;20107;-45
2020/12/05 09:46:12;;;;;;;14.65;8.38;;;9.50;79.40;;;;;;5119681;27;20043;-45
2020/12/05 09:48:38;;;;;;;11.63;7.72;;;9.50;79.40;;;;;;5135502;27;20402;-46
2020/12/05 09:51:04;;;;;;;10.20;8.02;;;9.50;79.40;;;;;;5134742;27;20467;-42
2020/12/05 09:53:30;;;;;;;12.60;8.40;;;9.60;79.50;;;;;;5135322;27;20530;-43
2020/12/05 09:55:56;;;;;;;9.68;7.28;;;9.60;79.50;;;;;;5135157;27;20031;-43
2020/12/05 09:58:41;;;;;;;9.93;7.78;;;9.60;79.50;;;;;;5117453;27;20505;-42
2020/12/05 10:01:07;;;;;;;10.63;7.47;;;9.50;79.40;;;;;;5135638;27;20043;-44
2020/12/05 10:03:32;;;;;;;12.95;8.57;;;9.60;79.50;;;;;;5135207;27;20079;-44
2020/12/05 10:06:18;;;;;;;12.10;8.35;;;9.60;79.50;;;;;;5117155;27;20046;-43
2020/12/05 10:08:44;;;;;;;10.32;7.95;;;9.60;79.60;;;;;;5134819;27;20410;-42
2020/12/05 10:11:29;;;;;;;11.32;7.60;;;9.50;80.10;;;;;;5119024;27;20099;-43
2020/12/05 10:13:55;;;;;;;10.32;7.32;;;9.60;79.60;;;;;;5134641;27;20050;-45
2020/12/05 10:16:41;;;;;;;11.88;8.02;;;9.60;79.60;;;;;;5115652;27;20046;-43
2020/12/05 10:19:06;;;;;;;10.52;8.32;;;9.60;79.60;;;;;;5134994;27;20411;-46
2020/12/05 10:21:32;;;;;;;10.73;8.00;;;9.60;79.60;;;;;;5134925;27;20044;-42
2020/12/05 10:24:20;;;;;;;11.25;7.10;;;9.60;79.60;;;;;;5118927;27;20079;-43
2020/12/05 10:26:53;;;;;;;10.80;7.80;;;9.60;79.60;;;;;;5134673;27;20062;-44
2020/12/05 10:29:39;;;;;;;10.85;7.72;;;9.60;79.70;;;;;;5116897;27;20047;-48
2020/12/05 10:32:05;;;;;;;11.27;7.47;;;9.60;79.60;;;;;;5134827;27;20050;-48
2020/12/05 10:34:50;;;;;;;9.48;7.43;;;9.60;79.60;;;;;;5118832;27;20042;-47
2020/12/05 10:37:16;;;;;;;9.38;7.20;;;9.60;79.70;;;;;;5134818;27;20054;-46
2020/12/05 10:39:42;;;;;;;9.32;7.18;;;9.60;79.60;;;;;;5133311;27;20116;-46
2020/12/05 10:42:07;;;;;;;12.43;7.88;;;9.60;79.70;;;;;;5134934;27;20039;-45
2020/12/05 10:44:33;;;;;;;10.25;7.68;;;9.60;79.70;;;;;;5134891;27;20047;-44
2020/12/05 10:46:59;;;;;;;9.43;7.45;;;9.60;79.70;;;;;;5135115;27;20039;-46
2020/12/05 10:49:28;;;;;;;9.55;7.55;;;9.60;79.70;;;;;;5134817;27;20047;-51
2020/12/05 10:51:54;;;;;;;8.52;7.43;;;9.60;79.70;;;;;;5134727;27;20546;-50
2020/12/05 10:54:40;;;;;;;9.70;7.72;;;9.60;79.70;;;;;;5116518;27;20051;-45
2020/12/05 10:57:06;;;;;;;11.52;7.22;;;9.60;79.70;;;;;;5134572;27;20092;-45
2020/12/05 10:59:54;;;;;;;10.55;7.88;;;9.60;79.70;;;;;;5112461;27;20051;-42
2020/12/05 11:02:40;;;;;;;9.95;6.78;;;9.60;79.70;;;;;;5118286;27;20078;-44
2020/12/05 11:05:06;;;;;;;8.88;6.93;;;9.60;79.70;;;;;;5133693;27;20610;-41
2020/12/05 11:07:32;;;;;;;8.13;6.82;;;9.60;79.80;;;;;;5133756;27;20071;-41
2020/12/05 11:09:58;;;;;;;11.75;7.57;;;9.60;79.70;;;;;;5128844;27;20043;-42
2020/12/05 11:12:23;;;;;;;10.68;6.72;;;9.60;79.70;;;;;;5132912;27;20039;-41
2020/12/05 11:14:49;;;;;;;7.35;6.40;;;9.70;79.70;;;;;;5130930;27;20047;-40
2020/12/05 11:17:15;;;;;;;8.38;6.68;;;9.70;79.80;;;;;;5132564;27;20043;-40
2020/12/05 11:19:40;;;;;;;8.80;6.85;;;9.60;79.70;;;;;;5133280;27;20039;-44
2020/12/05 11:22:06;;;;;;;9.23;6.72;;;9.70;79.80;;;;;;5133545;27;20046;-43
2020/12/05 11:24:32;;;;;;;8.77;6.72;;;9.60;79.70;;;;;;5133526;27;20054;-43
2020/12/05 11:26:57;;;;;;;8.18;6.25;;;9.60;79.70;;;;;;5132408;27;20193;-42
2020/12/05 11:29:23;;;;;;;8.85;6.72;;;9.70;79.80;;;;;;5133343;27;20041;-45
2020/12/05 11:31:49;;;;;;;9.48;6.88;;;9.70;79.70;;;;;;5133178;27;20129;-43
2020/12/05 11:34:15;;;;;;;9.20;6.72;;;9.70;79.80;;;;;;5131560;27;20123;-45
2020/12/05 11:36:44;;;;;;;8.95;6.10;;;9.70;79.80;;;;;;5133089;27;20089;-47
2020/12/05 11:39:10;;;;;;;8.25;6.80;;;9.70;79.70;;;;;;5132730;27;20035;-46
2020/12/05 11:41:36;;;;;;;7.30;5.95;;;9.70;79.80;;;;;;5133680;27;20088;-47
2020/12/05 11:44:05;;;;;;;9.70;7.05;;;9.70;79.70;;;;;;5127402;27;20467;-49
2020/12/05 11:46:31;;;;;;;6.75;6.00;;;9.70;79.70;;;;;;5132464;27;20047;-43
2020/12/05 11:49:17;;;;;;;9.75;6.53;;;9.70;79.70;;;;;;5111571;27;20074;-48
2020/12/05 11:52:03;;;;;;;7.68;5.60;;;9.70;79.70;;;;;;5117922;27;20039;-45
2020/12/05 11:54:29;;;;;;;8.13;5.47;;;9.70;79.70;;;;;;5133807;27;20051;-48
2020/12/05 11:56:54;;;;;;;7.28;6.28;;;9.70;79.70;;;;;;5115128;27;20042;-48
2020/12/05 11:59:20;;;;;;;9.13;5.88;;;9.70;79.70;;;;;;5132990;27;20061;-47
2020/12/05 12:02:07;;;;;;;8.13;6.22;;;9.70;79.70;;;;;;5116809;27;20051;-47
2020/12/05 12:04:33;;;;;;;7.43;5.60;;;9.70;79.70;;;;;;5133731;27;20051;-43
2020/12/05 12:06:59;;;;;;;7.65;5.80;;;9.70;79.70;;;;;;5130914;27;20095;-44
2020/12/05 12:09:24;;;;;;;7.38;6.05;;;9.70;79.70;;;;;;5133309;27;20051;-44
2020/12/05 12:11:50;;;;;;;7.30;6.22;;;9.70;79.60;;;;;;5133475;27;20384;-45
2020/12/05 12:14:16;;;;;;;6.30;5.32;;;9.70;79.70;;;;;;5132921;28;20046;-44
2020/12/05 12:16:41;;;;;;;7.32;5.95;;;9.70;79.70;;;;;;5133169;28;20080;-45
2020/12/05 12:19:07;;;;;;;7.85;6.40;;;9.70;79.70;;;;;;5133455;28;20063;-46
2020/12/05 12:21:52;;;;;;;6.18;5.30;;;9.70;79.60;;;;;;5106279;28;20050;-41
2020/12/05 12:24:38;;;;;;;6.85;5.63;;;9.70;79.60;;;;;;5117364;28;20046;-51
2020/12/05 12:27:04;;;;;;;6.28;5.68;;;9.70;79.60;;;;;;5132209;28;20043;-40
2020/12/05 12:29:29;;;;;;;5.80;5.15;;;9.70;79.60;;;;;;5131986;28;20063;-44
2020/12/05 12:32:15;;;;;;;6.75;5.50;;;9.70;79.60;;;;;;5117275;28;20062;-44
2020/12/05 12:34:41;;;;;;;7.93;5.65;;;9.80;79.70;;;;;;5132122;28;20039;-44
2020/12/05 12:37:07;;;;;;;7.32;5.70;;;9.80;79.70;;;;;;5133334;28;20513;-44
2020/12/05 12:39:32;;;;;;;5.75;5.03;;;9.80;79.70;;;;;;5130382;28;20043;-46
2020/12/05 12:42:18;;;;;;;7.03;5.47;;;9.70;79.60;;;;;;5117287;28;20483;-45
2020/12/05 12:45:05;;;;;;;5.82;4.95;;;9.80;79.60;;;;;;5118073;28;20051;-45
2020/12/05 12:49:57;;;;;;;6.43;4.93;;;9.80;79.60;;;;;;5132205;28;20119;-41
2020/12/05 12:52:22;;;;;;;5.75;4.90;;;9.80;79.60;;;;;;5133446;28;20067;-44
2020/12/05 12:54:49;;;;;;;6.22;5.22;;;9.70;79.60;;;;;;5133052;28;20047;-45
2020/12/05 12:57:14;;;;;;;5.30;4.43;;;9.80;79.60;;;;;;5132446;28;20051;-44
2020/12/05 12:59:40;;;;;;;6.53;5.07;;;9.80;79.60;;;;;;5133029;28;20126;-44
2020/12/05 13:02:06;;;;;;;6.90;5.20;;;9.80;79.60;;;;;;5132474;27;20505;-41
2020/12/05 13:04:31;;;;;;;6.10;4.65;;;9.80;79.60;;;;;;5135997;27;20039;-44
2020/12/05 13:07:17;;;;;;;5.30;4.80;;;9.80;79.60;;;;;;5121795;27;20087;-47
2020/12/05 13:09:43;;;;;;;5.55;4.28;;;9.80;79.60;;;;;;5136920;27;20070;-45
2020/12/05 13:12:28;;;;;;;6.95;5.05;;;9.80;79.60;;;;;;5120990;27;20047;-47
2020/12/05 13:15:14;;;;;;;6.60;4.68;;;9.80;79.60;;;;;;5118828;27;20051;-46
2020/12/05 13:17:40;;;;;;;5.05;4.55;;;9.80;79.50;;;;;;5136996;27;20096;-49
2020/12/05 13:20:25;;;;;;;5.15;4.45;;;9.80;79.60;;;;;;5120162;27;20082;-45
2020/12/05 13:22:51;;;;;;;4.90;4.30;;;9.80;79.60;;;;;;5136667;27;20093;-45
2020/12/05 13:25:37;;;;;;;4.85;4.07;;;9.80;79.50;;;;;;5121659;27;20051;-45
2020/12/05 13:28:02;;;;;;;5.78;3.92;;;9.80;79.60;;;;;;5135623;27;20171;-47
2020/12/05 13:30:28;;;;;;;6.25;4.63;;;9.80;79.50;;;;;;5136657;27;20075;-47
2020/12/05 13:32:54;;;;;;;5.90;4.40;;;9.80;79.50;;;;;;5136508;27;20053;-48